This is the latest recevied weather packets stored in our database for station/object WMKN. If no packets are shown the sender has not sent any weather packets the latest 1 day(s).
| Time | Temp. | Humidity | Pressure | Rain* | Wind** | Luminosity | Snow |
|---|---|---|---|---|---|---|---|
| 1836274447 | 30.56° C | 74% | 1011 hPa | - | 1.34 m/s, 0° | - | - |
| 1778047838 | 32.78° C | 66% | 1008 hPa | - | 2.68 m/s, 0° | - | - |
| 1778044237 | 33.89° C | 63% | 1008 hPa | - | 2.68 m/s, 0° | - | - |
| 1778040638 | 32.78° C | 62% | 1009 hPa | - | 2.24 m/s, 0° | - | - |
| 1778037045 | 32.78° C | 62% | 1009 hPa | - | 1.34 m/s, 0° | - | - |
| 1778033436 | 30.56° C | 70% | 1009 hPa | - | 1.34 m/s, 0° | - | - |
| 1778030406 | 28.89° C | 83% | 1009 hPa | - | 1.34 m/s, 230° | - | - |
| 1778029838 | 28.89° C | 83% | 1009 hPa | - | 1.34 m/s, 230° | - | - |
| 1778026238 | 26.67° C | 88% | 1008 hPa | - | 0.89 m/s, 0° | - | - |
| 1778022636 | 26.67° C | 88% | 1008 hPa | - | 0.89 m/s, 0° | - | - |
| 1778019049 | 26.67° C | 88% | 1007 hPa | - | 1.79 m/s, 220° | - | - |
| 1778015438 | 26.67° C | 88% | 1007 hPa | - | 1.34 m/s, 220° | - | - |
| 1778011837 | 27.78° C | 83% | 1007 hPa | - | 0.89 m/s, 0° | - | - |
| 1778009413 | 27.78° C | 83% | 1007 hPa | - | 0 m/s | - | - |
| 1778008235 | 27.78° C | 83% | 1007 hPa | - | 0 m/s | - | - |
| 1778004648 | 27.78° C | 83% | 1008 hPa | - | 0 m/s | - | - |
| 1778001035 | 27.78° C | 83% | 1009 hPa | - | 0.89 m/s, 0° | - | - |
| 1777997437 | 28.89° C | 79% | 1009 hPa | - | 1.34 m/s, 0° | - | - |
| 1777995035 | 30° C | 79% | 1008 hPa | - | 0 m/s | - | - |
| 1777994451 | 26.11° C | 87% | 1010.4 hPa | - | 0.89 m/s, 210° | - | - |
| 1777993835 | 30° C | 79% | 1008 hPa | - | 0 m/s | - | - |
| 1777990238 | 30° C | 79% | 1008 hPa | - | 0 m/s | - | - |
| 1777986648 | 30° C | 74% | 1007 hPa | - | 0 m/s | - | - |
| 1777983036 | 30° C | 74% | 1007 hPa | - | 0.45 m/s, 0° | - | - |
| 1777979437 | 30.56° C | 70% | 1006 hPa | - | 1.34 m/s, 0° | - | - |
* Rain since midnight (hover to see other rain measurements)
** Current wind speed in m/s (hover to see current wind gust speed)